Time;durP1;ratioP1;P1;durP2;ratioP2;P2;SDS_P1;SDS_P2;PMS_P1;PMS_P2;Temp;Humidity;BMP_temperature;BMP_pressure;BME280_temperature;BME280_humidity;BME280_pressure;Samples;Min_cycle;Max_cycle;Signal;HPM_P1;HPM_P2
2023/09/01 00:00:59;;;;;;;;;;;15.40;68.80;;;;;;5019219;28;19913;-69
2023/09/01 00:03:24;;;;;;;;;;;15.40;68.80;;;;;;5030348;28;19917;-69
2023/09/01 00:05:49;;;;;;;;;;;15.40;68.70;;;;;;5031818;28;20372;-69
2023/09/01 00:08:15;;;;;;;;;;;15.30;68.70;;;;;;5032295;28;20008;-69
2023/09/01 00:10:41;;;;;;;;;;;15.30;68.60;;;;;;5032132;28;19935;-69
2023/09/01 00:13:06;;;;;;;;;;;15.40;68.60;;;;;;5024933;28;20428;-70
2023/09/01 00:15:32;;;;;;;;;;;15.40;68.60;;;;;;5015228;28;19921;-68
2023/09/01 00:17:57;;;;;;;;;;;15.40;68.70;;;;;;5030193;28;19963;-68
2023/09/01 00:20:23;;;;;;;;;;;15.40;68.70;;;;;;5031834;28;19917;-68
2023/09/01 00:22:48;;;;;;;;;;;15.40;68.60;;;;;;5031335;28;19962;-68
2023/09/01 00:25:14;;;;;;;;;;;15.40;68.60;;;;;;5031662;28;19913;-68
2023/09/01 00:27:39;;;;;;;;;;;15.40;68.60;;;;;;5030969;28;19914;-68
2023/09/01 00:30:05;;;;;;;;;;;15.40;68.70;;;;;;5029582;28;19928;-68
2023/09/01 00:32:30;;;;;;;;;;;15.30;68.70;;;;;;5031498;28;20376;-68
2023/09/01 00:34:56;;;;;;;;;;;15.30;68.70;;;;;;5031555;28;19920;-68
2023/09/01 00:37:22;;;;;;;;;;;15.30;68.70;;;;;;5025596;28;19922;-68
2023/09/01 00:39:48;;;;;;;;;;;15.40;68.90;;;;;;5023378;28;19980;-68
2023/09/01 00:42:13;;;;;;;;;;;15.40;68.90;;;;;;5013617;28;19914;-69
2023/09/01 00:44:39;;;;;;;;;;;15.40;68.90;;;;;;5029562;28;19920;-68
2023/09/01 00:47:05;;;;;;;;;;;15.50;68.90;;;;;;5030824;28;20124;-68
2023/09/01 00:49:31;;;;;;;;;;;15.50;69.00;;;;;;5020751;28;19917;-68
2023/09/01 00:51:57;;;;;;;;;;;15.50;69.00;;;;;;5031611;28;19928;-68
2023/09/01 00:54:23;;;;;;;;;;;15.50;68.90;;;;;;5016685;28;20020;-65
2023/09/01 00:56:49;;;;;;;;;;;15.50;68.90;;;;;;5030693;28;19913;-65
2023/09/01 00:59:14;;;;;;;;;;;15.50;68.80;;;;;;5028346;28;19913;-65
2023/09/01 01:01:40;;;;;;;;;;;15.50;68.80;;;;;;5031119;28;19917;-68
2023/09/01 01:04:07;;;;;;;;;;;15.50;68.90;;;;;;5020384;28;20377;-68
2023/09/01 01:06:52;;;;;;;;;;;15.50;68.90;;;;;;5011366;28;19963;-68
2023/09/01 01:09:32;;;;;;;;;;;15.50;69.00;;;;;;5010767;28;19968;-68
2023/09/01 01:12:06;;;;;;;;;;;15.50;69.00;;;;;;5011911;28;20293;-69
2023/09/01 01:14:49;;;;;;;;;;;15.50;69.10;;;;;;5009662;28;19952;-69
2023/09/01 01:17:18;;;;;;;;;;;15.50;69.00;;;;;;5029787;28;19921;-69
2023/09/01 01:19:54;;;;;;;;;;;15.50;69.10;;;;;;5033064;28;19951;-69
2023/09/01 01:22:38;;;;;;;;;;;15.50;69.10;;;;;;5034883;28;19975;-69
2023/09/01 01:25:13;;;;;;;;;;;15.50;69.10;;;;;;5016431;28;19918;-69
2023/09/01 01:27:41;;;;;;;;;;;15.50;69.20;;;;;;5014647;28;19968;-69
2023/09/01 01:30:07;;;;;;;;;;;15.50;69.30;;;;;;5015177;28;20030;-69
2023/09/01 01:32:34;;;;;;;;;;;15.50;69.20;;;;;;5015204;28;20004;-69
2023/09/01 01:35:04;;;;;;;;;;;15.50;69.20;;;;;;5014678;28;19920;-69
2023/09/01 01:37:35;;;;;;;;;;;15.60;69.30;;;;;;5020720;28;19949;-69
2023/09/01 01:40:04;;;;;;;;;;;15.60;69.40;;;;;;5032443;28;19963;-69
2023/09/01 01:42:31;;;;;;;;;;;15.60;69.30;;;;;;5034067;28;20021;-69
2023/09/01 01:44:58;;;;;;;;;;;15.60;69.20;;;;;;5031266;28;20379;-69
2023/09/01 01:47:23;;;;;;;;;;;15.60;69.20;;;;;;5033858;28;19940;-69
2023/09/01 01:49:49;;;;;;;;;;;15.70;69.10;;;;;;5022853;28;20377;-69
2023/09/01 01:52:14;;;;;;;;;;;15.70;69.00;;;;;;5022894;28;19921;-69
2023/09/01 01:54:40;;;;;;;;;;;15.70;68.90;;;;;;5024955;28;19914;-69
2023/09/01 01:57:05;;;;;;;;;;;15.70;68.90;;;;;;5033737;28;20305;-69
2023/09/01 01:59:31;;;;;;;;;;;15.70;69.00;;;;;;5019532;28;19937;-69
2023/09/01 02:01:58;;;;;;;;;;;15.70;69.00;;;;;;5014473;28;20377;-70
2023/09/01 02:04:23;;;;;;;;;;;15.70;68.90;;;;;;5014275;28;20398;-69
2023/09/01 02:06:49;;;;;;;;;;;15.70;68.90;;;;;;5014342;28;19914;-69
2023/09/01 02:09:15;;;;;;;;;;;15.70;68.90;;;;;;5016653;28;19932;-69
2023/09/01 02:11:40;;;;;;;;;;;15.70;69.00;;;;;;5032869;28;19925;-69
2023/09/01 02:14:06;;;;;;;;;;;15.70;69.00;;;;;;5033665;28;19909;-69
2023/09/01 02:16:31;;;;;;;;;;;15.70;69.00;;;;;;5033846;28;19917;-69
2023/09/01 02:18:58;;;;;;;;;;;15.70;68.80;;;;;;5033551;28;19916;-69
2023/09/01 02:21:23;;;;;;;;;;;15.70;68.80;;;;;;5033256;28;20007;-69
2023/09/01 02:23:49;;;;;;;;;;;15.70;68.70;;;;;;5033567;28;19967;-69
2023/09/01 02:26:18;;;;;;;;;;;15.70;68.50;;;;;;5034069;28;19917;-69
2023/09/01 02:28:44;;;;;;;;;;;15.60;68.40;;;;;;5025112;28;19910;-69
2023/09/01 02:31:09;;;;;;;;;;;15.60;68.40;;;;;;5013396;28;19918;-69
2023/09/01 02:33:35;;;;;;;;;;;15.60;68.20;;;;;;5013154;28;20028;-69
2023/09/01 02:36:19;;;;;;;;;;;15.60;68.10;;;;;;5014359;28;19909;-69
2023/09/01 02:38:44;;;;;;;;;;;15.50;68.00;;;;;;5029912;28;19918;-70
2023/09/01 02:41:10;;;;;;;;;;;15.40;68.20;;;;;;5031409;28;19918;-69
2023/09/01 02:43:35;;;;;;;;;;;15.50;68.30;;;;;;5032964;28;20000;-69
2023/09/01 02:46:01;;;;;;;;;;;15.50;68.40;;;;;;5033789;28;19920;-70
2023/09/01 02:48:26;;;;;;;;;;;15.50;68.30;;;;;;5030877;28;20331;-69
2023/09/01 02:50:52;;;;;;;;;;;15.40;68.40;;;;;;5029410;28;20289;-70
2023/09/01 02:53:17;;;;;;;;;;;15.40;68.50;;;;;;5033170;28;20300;-69
2023/09/01 02:55:44;;;;;;;;;;;15.50;68.60;;;;;;5033484;28;19920;-70
2023/09/01 02:58:10;;;;;;;;;;;15.40;68.70;;;;;;5033241;28;19913;-70
2023/09/01 03:00:36;;;;;;;;;;;15.50;68.80;;;;;;5032779;28;19921;-70
2023/09/01 03:03:02;;;;;;;;;;;15.50;68.70;;;;;;5033042;28;20380;-70
2023/09/01 03:05:28;;;;;;;;;;;15.50;68.70;;;;;;5032863;28;19914;-70
2023/09/01 03:07:53;;;;;;;;;;;15.50;68.70;;;;;;5032934;28;20385;-70
2023/09/01 03:10:19;;;;;;;;;;;15.50;68.70;;;;;;5031514;28;19925;-70
2023/09/01 03:12:44;;;;;;;;;;;15.50;68.70;;;;;;5032568;28;19913;-70
2023/09/01 03:15:10;;;;;;;;;;;15.50;68.80;;;;;;5032534;28;19963;-70
2023/09/01 03:17:35;;;;;;;;;;;15.50;68.80;;;;;;5032544;28;19917;-68
2023/09/01 03:20:01;;;;;;;;;;;15.50;68.80;;;;;;5031281;28;19913;-68
2023/09/01 03:22:26;;;;;;;;;;;15.50;68.80;;;;;;5032070;28;20416;-68
2023/09/01 03:25:01;;;;;;;;;;;15.50;68.80;;;;;;5032585;28;19913;-68
2023/09/01 03:27:26;;;;;;;;;;;15.50;68.70;;;;;;5032508;28;20008;-68
2023/09/01 03:29:55;;;;;;;;;;;15.50;68.70;;;;;;5032510;28;20011;-68
2023/09/01 03:32:21;;;;;;;;;;;15.50;68.60;;;;;;5031627;28;20016;-68
2023/09/01 03:34:46;;;;;;;;;;;15.50;68.40;;;;;;5025809;28;20023;-69
2023/09/01 03:37:12;;;;;;;;;;;15.50;68.30;;;;;;5031661;28;19956;-69
2023/09/01 03:39:37;;;;;;;;;;;15.40;68.20;;;;;;5019754;28;20028;-68
2023/09/01 03:42:03;;;;;;;;;;;15.40;68.10;;;;;;5020304;28;19924;-69
2023/09/01 03:44:29;;;;;;;;;;;15.30;67.80;;;;;;5023507;28;19941;-69
2023/09/01 03:46:55;;;;;;;;;;;15.30;67.60;;;;;;5032429;28;20403;-68
2023/09/01 03:49:20;;;;;;;;;;;15.20;67.50;;;;;;5027574;28;19928;-69
2023/09/01 03:51:46;;;;;;;;;;;15.20;67.40;;;;;;5012099;28;20479;-69
2023/09/01 03:54:11;;;;;;;;;;;15.10;67.40;;;;;;5011546;28;20381;-69
2023/09/01 03:56:37;;;;;;;;;;;15.10;67.40;;;;;;5012118;28;20579;-69
2023/09/01 03:59:02;;;;;;;;;;;15.00;67.50;;;;;;5012159;28;19910;-69
2023/09/01 04:01:28;;;;;;;;;;;15.00;67.50;;;;;;5028073;28;19971;-69
2023/09/01 04:03:53;;;;;;;;;;;15.00;67.50;;;;;;5031181;28;19920;-69
2023/09/01 04:06:19;;;;;;;;;;;14.90;67.60;;;;;;5032014;28;19917;-69
2023/09/01 04:08:44;;;;;;;;;;;14.90;67.80;;;;;;5031312;28;19910;-69
2023/09/01 04:11:10;;;;;;;;;;;14.90;67.70;;;;;;5032046;28;19917;-69
2023/09/01 04:13:35;;;;;;;;;;;14.90;67.80;;;;;;5030559;28;20418;-69
2023/09/01 04:16:01;;;;;;;;;;;14.80;68.00;;;;;;5032536;28;19962;-70
2023/09/01 04:18:26;;;;;;;;;;;14.80;68.30;;;;;;5031476;28;19963;-69
2023/09/01 04:20:52;;;;;;;;;;;14.80;68.30;;;;;;5032040;28;19915;-69
2023/09/01 04:23:18;;;;;;;;;;;14.80;68.30;;;;;;5031102;28;19921;-69
2023/09/01 04:25:44;;;;;;;;;;;14.70;68.20;;;;;;5031632;28;19913;-69
2023/09/01 04:28:10;;;;;;;;;;;14.70;68.00;;;;;;5031540;28;19966;-69
2023/09/01 04:30:36;;;;;;;;;;;14.70;67.70;;;;;;5011985;28;20403;-69
2023/09/01 04:33:04;;;;;;;;;;;14.70;67.60;;;;;;5012009;28;20263;-69
2023/09/01 04:35:29;;;;;;;;;;;14.60;67.60;;;;;;5010980;28;19910;-72
2023/09/01 04:37:55;;;;;;;;;;;14.60;67.60;;;;;;5017546;28;19979;-69
2023/09/01 04:40:20;;;;;;;;;;;14.60;67.50;;;;;;5013954;28;19917;-69
2023/09/01 04:42:46;;;;;;;;;;;14.50;67.40;;;;;;5031213;28;19922;-69
2023/09/01 04:45:11;;;;;;;;;;;14.50;67.40;;;;;;5024939;28;19913;-69
2023/09/01 04:47:37;;;;;;;;;;;14.50;67.40;;;;;;5024454;28;19917;-69
2023/09/01 04:50:02;;;;;;;;;;;14.40;67.50;;;;;;5027809;28;19917;-69
2023/09/01 04:52:28;;;;;;;;;;;14.40;67.70;;;;;;5029820;28;19964;-70
2023/09/01 04:54:53;;;;;;;;;;;14.50;67.90;;;;;;5028286;28;19917;-69
2023/09/01 04:57:19;;;;;;;;;;;14.50;68.10;;;;;;5028226;28;19968;-69
2023/09/01 04:59:45;;;;;;;;;;;14.50;68.00;;;;;;5032078;28;19920;-70
2023/09/01 05:02:10;;;;;;;;;;;14.60;68.00;;;;;;5035572;28;19959;-69
2023/09/01 05:04:36;;;;;;;;;;;14.60;68.20;;;;;;5032923;28;19922;-69
2023/09/01 05:07:01;;;;;;;;;;;14.70;68.30;;;;;;5034329;28;19960;-70
2023/09/01 05:09:27;;;;;;;;;;;14.80;68.60;;;;;;5030670;28;19923;-70
2023/09/01 05:11:52;;;;;;;;;;;14.90;68.80;;;;;;5034050;28;19924;-69
2023/09/01 05:14:17;;;;;;;;;;;15.10;69.20;;;;;;5033837;28;19936;-70
2023/09/01 05:16:43;;;;;;;;;;;15.30;69.40;;;;;;5033609;28;19943;-70
2023/09/01 05:19:08;;;;;;;;;;;15.40;69.20;;;;;;5033420;28;19913;-71
2023/09/01 05:21:34;;;;;;;;;;;15.70;69.50;;;;;;5034561;28;19971;-70
2023/09/01 05:23:59;;;;;;;;;;;15.80;69.40;;;;;;5032690;28;19913;-71
2023/09/01 05:26:25;;;;;;;;;;;15.90;68.80;;;;;;5030919;28;20403;-71
2023/09/01 05:28:50;;;;;;;;;;;16.00;68.30;;;;;;5030049;28;19940;-70
2023/09/01 05:31:15;;;;;;;;;;;16.00;68.40;;;;;;5033352;28;19917;-70
2023/09/01 05:33:41;;;;;;;;;;;16.10;68.90;;;;;;5028987;28;20024;-70
2023/09/01 05:36:06;;;;;;;;;;;16.30;69.50;;;;;;5014914;28;19945;-70
2023/09/01 05:38:32;;;;;;;;;;;16.70;70.30;;;;;;5029184;28;19913;-70
2023/09/01 05:40:58;;;;;;;;;;;17.10;70.70;;;;;;5026809;28;19914;-70
2023/09/01 05:43:24;;;;;;;;;;;17.50;70.40;;;;;;5014252;28;19957;-69
2023/09/01 05:45:49;;;;;;;;;;;17.70;70.30;;;;;;5026469;28;19944;-69
2023/09/01 05:48:15;;;;;;;;;;;18.10;70.50;;;;;;5033595;28;19917;-70
2023/09/01 05:50:42;;;;;;;;;;;18.30;69.90;;;;;;5014515;28;20511;-69
2023/09/01 05:53:08;;;;;;;;;;;18.40;69.30;;;;;;5032490;28;19913;-70
2023/09/01 05:55:33;;;;;;;;;;;18.50;69.00;;;;;;5028536;28;19967;-69
2023/09/01 05:57:59;;;;;;;;;;;18.60;69.00;;;;;;5033899;28;20337;-69
2023/09/01 06:00:24;;;;;;;;;;;18.70;69.00;;;;;;5033260;28;19935;-69
2023/09/01 06:02:51;;;;;;;;;;;18.80;68.80;;;;;;5033121;28;19921;-69
2023/09/01 06:05:17;;;;;;;;;;;18.90;69.00;;;;;;5025748;28;19958;-69
2023/09/01 06:07:42;;;;;;;;;;;19.10;69.50;;;;;;5033464;28;20008;-69
2023/09/01 06:10:08;;;;;;;;;;;19.40;71.00;;;;;;5016734;28;19917;-69
2023/09/01 06:12:33;;;;;;;;;;;19.80;71.90;;;;;;5034186;28;20419;-69
2023/09/01 06:14:59;;;;;;;;;;;20.30;71.70;;;;;;5019075;28;19932;-70
2023/09/01 06:17:24;;;;;;;;;;;20.50;70.80;;;;;;5024025;28;19943;-70
2023/09/01 06:19:50;;;;;;;;;;;20.70;70.30;;;;;;5017450;28;19921;-70
2023/09/01 06:22:15;;;;;;;;;;;20.70;68.90;;;;;;5012252;28;19918;-69
2023/09/01 06:24:40;;;;;;;;;;;20.70;68.20;;;;;;5023199;28;19952;-69
2023/09/01 06:27:06;;;;;;;;;;;20.50;67.60;;;;;;5022442;28;19947;-69
2023/09/01 06:29:32;;;;;;;;;;;20.50;67.50;;;;;;5026934;28;20019;-69
2023/09/01 06:31:57;;;;;;;;;;;20.50;68.10;;;;;;5026665;28;19913;-68
2023/09/01 06:34:22;;;;;;;;;;;20.70;69.50;;;;;;5030037;28;19917;-68
2023/09/01 06:36:48;;;;;;;;;;;21.10;70.30;;;;;;5016513;28;20344;-68
2023/09/01 06:39:15;;;;;;;;;;;21.50;72.10;;;;;;5022261;28;19956;-68
2023/09/01 06:41:40;;;;;;;;;;;22.10;73.60;;;;;;5024942;28;20345;-67
2023/09/01 06:44:09;;;;;;;;;;;22.80;74.10;;;;;;5025986;28;20008;-68
2023/09/01 06:46:34;;;;;;;;;;;23.50;73.80;;;;;;5015736;28;19913;-69
2023/09/01 06:49:00;;;;;;;;;;;24.00;72.70;;;;;;5030437;28;20388;-67
2023/09/01 06:51:25;;;;;;;;;;;24.40;72.20;;;;;;5018432;28;19925;-68
2023/09/01 06:53:51;;;;;;;;;;;24.90;73.00;;;;;;5012297;28;20024;-67
2023/09/01 06:56:16;;;;;;;;;;;25.50;74.10;;;;;;5023910;28;19917;-67
2023/09/01 06:58:42;;;;;;;;;;;26.10;73.40;;;;;;5028603;28;19936;-67
2023/09/01 07:01:08;;;;;;;;;;;26.60;73.70;;;;;;5014500;28;19917;-67
2023/09/01 07:03:34;;;;;;;;;;;27.20;73.60;;;;;;5030226;28;19925;-68
2023/09/01 07:05:59;;;;;;;;;;;27.60;72.40;;;;;;5033140;28;19913;-66
2023/09/01 07:08:28;;;;;;;;;;;27.90;72.20;;;;;;5030064;28;20389;-67
2023/09/01 07:10:58;;;;;;;;;;;28.10;71.80;;;;;;5026995;28;20036;-67
2023/09/01 07:13:24;;;;;;;;;;;28.10;70.50;;;;;;5028590;28;19974;-67
2023/09/01 07:15:49;;;;;;;;;;;27.90;69.60;;;;;;5026342;28;20276;-68
2023/09/01 07:18:15;;;;;;;;;;;27.80;68.60;;;;;;5031935;28;19917;-67
2023/09/01 07:20:40;;;;;;;;;;;27.50;68.20;;;;;;5029060;28;20040;-66
2023/09/01 07:23:05;;;;;;;;;;;27.20;67.40;;;;;;5015416;28;20400;-66
2023/09/01 07:25:31;;;;;;;;;;;27.10;68.60;;;;;;5013006;28;20010;-66
2023/09/01 07:27:56;;;;;;;;;;;27.20;71.00;;;;;;5027298;28;20042;-67
2023/09/01 07:30:22;;;;;;;;;;;27.80;72.30;;;;;;5023572;28;19917;-68
2023/09/01 07:32:47;;;;;;;;;;;28.20;71.10;;;;;;5031942;28;20340;-67
2023/09/01 07:35:13;;;;;;;;;;;28.40;70.00;;;;;;5014010;28;19920;-68
2023/09/01 07:37:38;;;;;;;;;;;28.50;68.70;;;;;;5018968;28;19917;-68
2023/09/01 07:40:04;;;;;;;;;;;28.70;68.90;;;;;;5017481;28;19918;-66
2023/09/01 07:42:30;;;;;;;;;;;29.00;69.30;;;;;;5016095;28;19972;-67
2023/09/01 07:44:56;;;;;;;;;;;29.10;67.10;;;;;;5021111;28;19952;-66
2023/09/01 07:47:21;;;;;;;;;;;29.20;67.60;;;;;;5032590;28;20414;-67
2023/09/01 07:49:47;;;;;;;;;;;29.10;66.10;;;;;;5018262;28;19921;-66
2023/09/01 07:52:12;;;;;;;;;;;29.20;67.30;;;;;;5023730;28;20347;-66
2023/09/01 07:54:38;;;;;;;;;;;29.30;68.40;;;;;;5032128;28;20030;-66
2023/09/01 07:57:03;;;;;;;;;;;29.50;67.20;;;;;;5031332;28;20008;-67
2023/09/01 07:59:29;;;;;;;;;;;29.50;67.30;;;;;;5021262;28;19919;-66
2023/09/01 08:01:54;;;;;;;;;;;29.40;66.30;;;;;;5010841;28;19913;-66
2023/09/01 08:04:20;;;;;;;;;;;29.40;66.30;;;;;;5020178;28;19949;-67
2023/09/01 08:06:47;;;;;;;;;;;29.50;66.80;;;;;;5028571;28;20412;-68
2023/09/01 08:09:12;;;;;;;;;;;29.60;66.40;;;;;;5023306;28;19956;-68
2023/09/01 08:11:38;;;;;;;;;;;29.80;66.40;;;;;;5024501;28;19975;-68
2023/09/01 08:14:03;;;;;;;;;;;29.80;65.30;;;;;;5024688;28;20424;-68
2023/09/01 08:16:29;;;;;;;;;;;30.00;66.40;;;;;;5029612;28;19917;-68
2023/09/01 08:18:58;;;;;;;;;;;30.20;65.60;;;;;;5023924;28;19910;-68
2023/09/01 08:21:24;;;;;;;;;;;30.50;65.80;;;;;;5031002;28;19921;-68
2023/09/01 08:23:50;;;;;;;;;;;30.60;60.80;;;;;;5026102;28;20067;-68
2023/09/01 08:26:16;;;;;;;;;;;30.60;61.50;;;;;;5026403;28;19921;-68
2023/09/01 08:28:41;;;;;;;;;;;30.80;62.30;;;;;;5027298;28;19921;-68
2023/09/01 08:31:07;;;;;;;;;;;31.20;63.70;;;;;;5011596;28;20396;-68
2023/09/01 08:33:33;;;;;;;;;;;31.60;62.60;;;;;;5030589;28;19957;-68
2023/09/01 08:36:03;;;;;;;;;;;32.00;59.20;;;;;;5029936;28;19913;-68
2023/09/01 08:38:29;;;;;;;;;;;32.20;59.60;;;;;;5028879;28;19972;-68
2023/09/01 08:40:58;;;;;;;;;;;32.70;59.50;;;;;;5016432;28;20377;-68
2023/09/01 08:43:24;;;;;;;;;;;33.00;58.10;;;;;;5010908;28;20274;-68
2023/09/01 08:45:50;;;;;;;;;;;33.40;56.40;;;;;;5021856;28;19921;-66
2023/09/01 08:48:16;;;;;;;;;;;33.60;53.00;;;;;;5014886;28;19914;-67
2023/09/01 08:50:41;;;;;;;;;;;33.70;48.00;;;;;;5011353;28;19921;-67
2023/09/01 08:53:07;;;;;;;;;;;33.90;52.70;;;;;;5009779;28;19918;-67
2023/09/01 08:55:32;;;;;;;;;;;34.30;51.20;;;;;;5011254;28;19920;-67
2023/09/01 08:57:58;;;;;;;;;;;34.40;49.20;;;;;;5017966;28;19940;-67
2023/09/01 09:00:23;;;;;;;;;;;34.40;48.20;;;;;;5012920;28;19968;-67
2023/09/01 09:02:49;;;;;;;;;;;34.20;47.20;;;;;;5012364;28;19925;-67
2023/09/01 09:05:15;;;;;;;;;;;33.90;44.50;;;;;;5018951;28;19917;-66
2023/09/01 09:07:40;;;;;;;;;;;33.50;44.80;;;;;;5030370;28;19913;-67
2023/09/01 09:10:06;;;;;;;;;;;33.10;43.60;;;;;;5028229;28;19971;-66
2023/09/01 09:12:39;;;;;;;;;;;32.60;42.60;;;;;;5018399;28;19963;-66
2023/09/01 09:15:05;;;;;;;;;;;32.30;41.20;;;;;;5023466;28;19917;-66
2023/09/01 09:17:43;;;;;;;;;;;31.80;41.80;;;;;;5020839;28;19922;-66
2023/09/01 09:20:09;;;;;;;;;;;31.40;40.10;;;;;;5010073;28;20388;-67
2023/09/01 09:22:55;;;;;;;;;;;31.00;39.10;;;;;;5015573;28;20028;-68
2023/09/01 09:25:25;;;;;;;;;;;30.70;40.60;;;;;;5023577;28;19921;-67
2023/09/01 09:27:50;;;;;;;;;;;30.60;41.90;;;;;;5021000;28;19921;-68
2023/09/01 09:30:16;;;;;;;;;;;30.70;41.40;;;;;;5022552;28;19975;-67
2023/09/01 09:32:41;;;;;;;;;;;30.70;41.70;;;;;;5017644;28;19917;-67
2023/09/01 09:35:09;;;;;;;;;;;30.70;41.20;;;;;;5024528;28;20000;-67
2023/09/01 09:37:35;;;;;;;;;;;30.50;39.50;;;;;;5023424;28;19972;-67
2023/09/01 09:40:10;;;;;;;;;;;30.50;40.20;;;;;;5021041;28;19913;-66
2023/09/01 09:42:36;;;;;;;;;;;30.40;39.20;;;;;;5019410;28;20016;-67
2023/09/01 09:45:04;;;;;;;;;;;30.30;39.60;;;;;;5021219;28;19917;-68
2023/09/01 09:47:31;;;;;;;;;;;30.30;40.60;;;;;;5015899;28;19948;-67
2023/09/01 09:49:57;;;;;;;;;;;30.20;40.60;;;;;;5017102;28;19932;-68
2023/09/01 09:52:23;;;;;;;;;;;30.30;40.70;;;;;;5010360;28;19926;-68
2023/09/01 09:54:50;;;;;;;;;;;30.20;40.80;;;;;;5016344;28;20017;-65
2023/09/01 09:57:16;;;;;;;;;;;30.20;40.10;;;;;;5014762;28;19929;-66
2023/09/01 09:59:47;;;;;;;;;;;30.10;40.90;;;;;;5012862;28;19917;-66
2023/09/01 10:02:28;;;;;;;;;;;30.00;41.00;;;;;;5002222;28;20387;-66
2023/09/01 10:04:53;;;;;;;;;;;30.00;41.70;;;;;;5011460;28;20361;-66
2023/09/01 10:07:19;;;;;;;;;;;29.90;40.90;;;;;;5015090;28;19971;-66
2023/09/01 10:09:45;;;;;;;;;;;29.70;40.80;;;;;;5010560;28;20011;-66
2023/09/01 10:12:11;;;;;;;;;;;29.50;40.70;;;;;;5002807;28;20006;-66
2023/09/01 10:14:39;;;;;;;;;;;29.40;41.30;;;;;;5013991;28;19922;-67
2023/09/01 10:17:05;;;;;;;;;;;29.30;41.60;;;;;;5011563;28;19928;-66
2023/09/01 10:19:30;;;;;;;;;;;29.20;40.30;;;;;;5012749;28;19920;-65
2023/09/01 10:21:56;;;;;;;;;;;29.10;40.50;;;;;;5005556;28;19925;-65
2023/09/01 10:24:21;;;;;;;;;;;29.00;40.70;;;;;;5013621;28;19921;-66
2023/09/01 10:27:07;;;;;;;;;;;29.00;41.60;;;;;;5011794;28;19921;-66
2023/09/01 10:29:35;;;;;;;;;;;29.00;41.20;;;;;;5010985;28;20111;-66
2023/09/01 10:32:15;;;;;;;;;;;29.00;41.40;;;;;;5006254;28;20393;-66
2023/09/01 10:34:40;;;;;;;;;;;28.80;41.00;;;;;;5011908;28;19951;-66
2023/09/01 10:37:24;;;;;;;;;;;28.70;40.40;;;;;;5010921;28;19926;-67
2023/09/01 10:39:50;;;;;;;;;;;28.40;40.00;;;;;;5011726;28;20054;-66
2023/09/01 10:42:15;;;;;;;;;;;28.00;40.20;;;;;;5005403;28;19926;-66
2023/09/01 10:44:42;;;;;;;;;;;27.70;41.30;;;;;;5028841;28;19923;-66
2023/09/01 10:47:31;;;;;;;;;;;27.60;42.10;;;;;;5029226;28;19917;-65
2023/09/01 10:49:57;;;;;;;;;;;27.60;42.60;;;;;;5024251;28;19968;-67
2023/09/01 10:52:23;;;;;;;;;;;27.50;42.80;;;;;;5016758;28;20440;-66
2023/09/01 10:55:16;;;;;;;;;;;27.40;43.20;;;;;;5026296;28;19913;-65
2023/09/01 10:57:42;;;;;;;;;;;27.30;42.90;;;;;;5028961;28;19921;-65
2023/09/01 11:00:31;;;;;;;;;;;27.20;43.40;;;;;;5027708;28;19914;-65
2023/09/01 11:03:15;;;;;;;;;;;27.10;43.10;;;;;;5007021;28;20012;-64
2023/09/01 11:05:41;;;;;;;;;;;27.00;43.70;;;;;;5030581;28;19917;-65
2023/09/01 11:08:12;;;;;;;;;;;26.80;43.50;;;;;;5022305;28;20447;-67
2023/09/01 11:10:38;;;;;;;;;;;26.80;43.70;;;;;;5029288;28;19921;-66
2023/09/01 11:13:16;;;;;;;;;;;26.70;43.90;;;;;;5018121;28;19917;-66
2023/09/01 11:15:44;;;;;;;;;;;26.70;44.30;;;;;;5011243;28;19917;-66
2023/09/01 11:18:17;;;;;;;;;;;26.70;44.80;;;;;;5011615;28;20281;-66
2023/09/01 11:20:43;;;;;;;;;;;26.80;45.00;;;;;;5025335;28;20432;-66
2023/09/01 11:23:09;;;;;;;;;;;27.00;44.80;;;;;;5011352;28;19922;-66
2023/09/01 11:25:35;;;;;;;;;;;27.00;44.10;;;;;;5022842;28;20262;-67
2023/09/01 11:28:00;;;;;;;;;;;27.00;43.90;;;;;;5017981;28;19929;-66
2023/09/01 11:30:26;;;;;;;;;;;26.90;43.90;;;;;;5016875;28;19921;-67
2023/09/01 11:32:51;;;;;;;;;;;27.00;43.90;;;;;;5030140;28;19913;-67
2023/09/01 11:35:23;;;;;;;;;;;27.00;44.00;;;;;;5030860;28;19917;-66
2023/09/01 11:37:49;;;;;;;;;;;27.00;44.30;;;;;;5029443;28;19987;-66
2023/09/01 11:40:14;;;;;;;;;;;27.10;44.10;;;;;;5026203;28;19921;-66
2023/09/01 11:42:41;;;;;;;;;;;27.10;43.70;;;;;;5023485;28;19927;-67
2023/09/01 11:45:07;;;;;;;;;;;27.10;43.80;;;;;;5030137;28;19921;-67
2023/09/01 11:47:33;;;;;;;;;;;27.10;44.30;;;;;;5028045;28;19962;-66
2023/09/01 11:49:59;;;;;;;;;;;27.30;44.30;;;;;;5010902;28;20391;-67
2023/09/01 11:52:24;;;;;;;;;;;27.40;44.20;;;;;;5023205;28;19936;-67
2023/09/01 11:54:51;;;;;;;;;;;27.50;43.80;;;;;;5029458;28;20487;-67
2023/09/01 11:57:17;;;;;;;;;;;27.60;44.00;;;;;;5029676;28;20349;-67
2023/09/01 11:59:46;;;;;;;;;;;27.60;43.90;;;;;;5020798;28;19971;-67
2023/09/01 12:02:15;;;;;;;;;;;27.60;43.10;;;;;;5030232;28;19913;-67
2023/09/01 12:04:47;;;;;;;;;;;27.50;43.30;;;;;;5026055;28;20133;-68
2023/09/01 12:07:22;;;;;;;;;;;27.40;43.30;;;;;;5029344;28;19917;-66
2023/09/01 12:09:48;;;;;;;;;;;27.30;43.70;;;;;;5029890;28;19943;-66
2023/09/01 12:12:13;;;;;;;;;;;27.30;43.60;;;;;;5029347;28;19968;-66
2023/09/01 12:14:39;;;;;;;;;;;27.20;43.60;;;;;;5022410;28;20014;-67
2023/09/01 12:17:14;;;;;;;;;;;27.20;43.80;;;;;;5029763;28;19913;-66
2023/09/01 12:19:52;;;;;;;;;;;27.20;43.80;;;;;;5010531;28;19914;-66
2023/09/01 12:22:18;;;;;;;;;;;27.10;44.20;;;;;;5019306;28;19925;-66
2023/09/01 12:25:09;;;;;;;;;;;27.00;44.40;;;;;;5017225;28;19918;-68
2023/09/01 12:27:35;;;;;;;;;;;27.10;44.60;;;;;;5020056;28;20361;-66
2023/09/01 12:30:00;;;;;;;;;;;27.10;44.80;;;;;;5017669;28;19928;-67
2023/09/01 12:32:27;;;;;;;;;;;27.20;45.00;;;;;;5029112;28;19924;-66
2023/09/01 12:34:53;;;;;;;;;;;27.20;44.90;;;;;;5029209;28;20114;-67
2023/09/01 12:37:18;;;;;;;;;;;27.30;45.00;;;;;;5026738;28;19963;-67
2023/09/01 12:39:44;;;;;;;;;;;27.30;45.00;;;;;;5028680;28;20339;-67
2023/09/01 12:42:09;;;;;;;;;;;27.30;44.90;;;;;;5028998;28;19913;-67
2023/09/01 12:44:35;;;;;;;;;;;27.30;45.00;;;;;;5023464;28;19924;-68
2023/09/01 12:47:01;;;;;;;;;;;27.30;44.90;;;;;;5028271;28;20296;-67
2023/09/01 12:49:26;;;;;;;;;;;27.30;44.90;;;;;;5022225;28;19924;-66
2023/09/01 12:51:52;;;;;;;;;;;27.30;44.80;;;;;;5030390;28;19921;-67
2023/09/01 12:54:17;;;;;;;;;;;27.20;44.90;;;;;;5027492;28;20015;-67
2023/09/01 12:56:43;;;;;;;;;;;27.20;45.00;;;;;;5029825;28;19923;-67
2023/09/01 12:59:09;;;;;;;;;;;27.20;45.30;;;;;;5013943;28;19917;-67
2023/09/01 13:01:34;;;;;;;;;;;27.20;44.70;;;;;;5010111;28;19921;-67
2023/09/01 13:04:00;;;;;;;;;;;27.00;44.90;;;;;;5019789;28;20004;-67
2023/09/01 13:06:25;;;;;;;;;;;26.80;45.10;;;;;;5029666;28;19925;-67
2023/09/01 13:08:50;;;;;;;;;;;26.80;45.20;;;;;;5017079;28;19920;-67
2023/09/01 13:11:16;;;;;;;;;;;26.70;45.40;;;;;;5024938;28;19952;-67
2023/09/01 13:13:42;;;;;;;;;;;26.70;45.70;;;;;;5017617;28;19923;-67
2023/09/01 13:16:09;;;;;;;;;;;26.80;45.80;;;;;;5022526;28;19917;-68
2023/09/01 13:18:35;;;;;;;;;;;26.70;45.80;;;;;;5026891;28;19913;-67
2023/09/01 13:21:01;;;;;;;;;;;26.80;46.00;;;;;;5022197;28;19921;-67
2023/09/01 13:23:26;;;;;;;;;;;26.80;46.10;;;;;;5030198;28;20391;-67
2023/09/01 13:25:53;;;;;;;;;;;26.90;45.60;;;;;;5028339;28;19909;-67
2023/09/01 13:28:18;;;;;;;;;;;26.80;45.70;;;;;;5030997;28;20432;-67
2023/09/01 13:30:44;;;;;;;;;;;26.90;45.70;;;;;;5022563;28;20004;-67
2023/09/01 13:33:10;;;;;;;;;;;26.80;45.40;;;;;;5020476;28;19928;-68
2023/09/01 13:35:35;;;;;;;;;;;26.70;45.40;;;;;;5028390;28;19923;-67
2023/09/01 13:38:01;;;;;;;;;;;26.60;45.60;;;;;;5032709;28;19917;-67
2023/09/01 13:40:26;;;;;;;;;;;26.40;45.80;;;;;;5032628;28;19917;-67
2023/09/01 13:42:52;;;;;;;;;;;26.30;46.00;;;;;;5033233;28;19917;-67
2023/09/01 13:45:18;;;;;;;;;;;26.20;46.20;;;;;;5032168;28;19957;-67
2023/09/01 13:47:43;;;;;;;;;;;26.00;46.50;;;;;;5029559;28;19940;-67
2023/09/01 13:50:09;;;;;;;;;;;26.00;46.80;;;;;;5031809;28;19917;-66
2023/09/01 13:52:34;;;;;;;;;;;25.90;47.20;;;;;;5033025;28;19917;-67
2023/09/01 13:55:00;;;;;;;;;;;25.80;47.50;;;;;;5030748;28;20291;-64
2023/09/01 13:57:25;;;;;;;;;;;25.70;47.80;;;;;;5030183;28;19921;-65
2023/09/01 13:59:51;;;;;;;;;;;25.70;48.10;;;;;;5030764;28;19917;-65
2023/09/01 14:02:17;;;;;;;;;;;25.60;48.40;;;;;;5027299;28;19917;-66
2023/09/01 14:04:42;;;;;;;;;;;25.50;48.60;;;;;;5026907;28;20528;-66
2023/09/01 14:07:08;;;;;;;;;;;25.50;48.70;;;;;;5031831;28;19917;-67
2023/09/01 14:09:33;;;;;;;;;;;25.40;48.80;;;;;;5030689;28;19921;-66
2023/09/01 14:11:59;;;;;;;;;;;25.40;48.90;;;;;;5030837;28;20312;-66
2023/09/01 14:14:25;;;;;;;;;;;25.40;49.00;;;;;;5028623;28;19952;-65